Time;durP1;ratioP1;P1;durP2;ratioP2;P2;SDS_P1;SDS_P2;PMS_P1;PMS_P2;Temp;Humidity;BMP_temperature;BMP_pressure;BME280_temperature;BME280_humidity;BME280_pressure;Samples;Min_cycle;Max_cycle;Signal;HPM_P1;HPM_P2
2022/02/10 02:24:20;;;;;;;778.47;713.60;;;5.10;99.90;;;;;;5982454;23;20427;-85
2022/02/10 03:08:24;;;;;;;813.73;737.27;;;3.20;99.90;;;;;;5967149;23;20422;-85
2022/02/10 03:21:57;;;;;;;775.97;699.17;;;2.70;99.90;;;;;;5999346;23;20448;-83
2022/02/10 09:12:43;;;;;;;59.77;55.57;;;8.40;99.90;;;;;;6193499;23;20448;-86
2022/02/10 11:39:30;;;;;;;728.90;684.00;;;8.10;99.90;;;;;;6229813;23;20409;-84
2022/02/10 14:10:29;;;;;;;670.77;614.10;;;7.40;99.90;;;;;;6219274;23;20387;-84
2022/02/10 14:13:14;;;;;;;668.00;611.90;;;7.50;99.90;;;;;;6218509;23;20403;-85
2022/02/10 14:16:03;;;;;;;684.10;628.10;;;7.60;99.90;;;;;;6217602;23;20964;-84
2022/02/10 14:18:46;;;;;;;686.80;630.17;;;7.70;99.90;;;;;;6227046;23;20425;-84
2022/02/10 14:21:22;;;;;;;685.83;628.33;;;7.70;99.90;;;;;;6217138;23;20470;-84
2022/02/10 14:26:49;;;;;;;656.30;607.90;;;8.20;99.90;;;;;;6216178;23;20501;-85
2022/02/10 14:29:27;;;;;;;655.23;607.97;;;8.10;99.90;;;;;;6217792;23;20404;-85
2022/02/10 14:32:03;;;;;;;656.20;609.80;;;8.10;99.90;;;;;;6227428;23;20739;-85
2022/02/10 14:34:43;;;;;;;646.47;605.27;;;8.00;99.90;;;;;;6227073;23;20436;-85
2022/02/10 14:37:39;;;;;;;640.53;599.83;;;8.00;99.90;;;;;;6216820;23;20415;-86
2022/02/10 14:40:46;;;;;;;624.83;589.40;;;7.80;99.90;;;;;;6228359;23;20473;-85
2022/02/10 16:18:14;;;;;;;758.73;702.60;;;7.40;99.90;;;;;;5109198;28;20236;-83
2022/02/10 16:21:06;;;;;;;755.20;700.00;;;7.40;99.90;;;;;;5110240;28;20448;-85
2022/02/10 16:23:35;;;;;;;762.70;707.37;;;7.40;99.90;;;;;;5109544;28;20524;-85
2022/02/10 16:26:14;;;;;;;764.90;711.57;;;7.40;99.90;;;;;;5110841;28;20477;-85
2022/02/10 16:28:45;;;;;;;762.90;708.60;;;7.30;99.90;;;;;;5111878;28;20482;-85
2022/02/10 16:31:16;;;;;;;766.70;710.53;;;7.40;99.90;;;;;;5112741;28;20535;-84
2022/02/10 16:33:52;;;;;;;757.87;704.37;;;7.30;99.90;;;;;;5116483;28;20476;-85
2022/02/10 16:36:34;;;;;;;729.00;682.23;;;7.30;99.90;;;;;;5120828;28;20449;-83
2022/02/10 16:39:09;;;;;;;729.63;683.93;;;7.20;99.90;;;;;;5116563;28;20456;-83
2022/02/10 16:41:37;;;;;;;745.50;696.07;;;7.20;99.90;;;;;;5119838;28;20452;-84
2022/02/10 16:44:07;;;;;;;744.57;693.67;;;7.10;99.90;;;;;;5119404;28;20461;-84
2022/02/10 16:46:37;;;;;;;746.90;695.10;;;7.10;99.90;;;;;;5120939;28;20453;-83
2022/02/10 16:49:08;;;;;;;745.57;695.07;;;7.00;99.90;;;;;;5122127;28;20873;-84
2022/02/10 16:51:46;;;;;;;744.87;693.07;;;7.10;99.90;;;;;;5120294;28;20964;-83
2022/02/10 16:54:22;;;;;;;745.77;692.27;;;7.00;99.90;;;;;;5100565;28;20545;-84
2022/02/10 16:57:01;;;;;;;745.93;690.47;;;7.10;99.90;;;;;;5101365;28;20449;-83
2022/02/10 16:59:39;;;;;;;745.17;687.50;;;7.00;99.90;;;;;;5101293;28;20485;-84
2022/02/10 17:02:26;;;;;;;757.97;697.47;;;6.90;99.90;;;;;;5100730;28;20458;-83
2022/02/10 17:05:24;;;;;;;765.43;702.73;;;6.90;99.90;;;;;;5101824;28;20470;-83
2022/02/10 17:19:12;;;;;;;749.27;685.50;;;6.80;99.90;;;;;;5099243;28;20437;-84
2022/02/10 17:27:21;;;;;;;760.87;695.67;;;6.90;99.90;;;;;;5088138;28;20438;-84
2022/02/10 17:33:00;;;;;;;761.60;695.70;;;7.00;99.90;;;;;;5082936;28;20955;-83
2022/02/10 17:54:57;;;;;;;;;;;;;;;;;;;;;
2022/02/10 18:00:53;;;;;;;756.27;692.97;;;6.80;99.90;;;;;;5082025;28;20438;-84
2022/02/10 18:03:29;;;;;;;752.73;688.10;;;6.70;99.90;;;;;;5084234;28;20446;-83
2022/02/10 18:16:16;;;;;;;756.10;698.40;;;6.70;99.90;;;;;;5082003;28;20485;-84
2022/02/10 18:35:59;;;;;;;745.87;687.07;;;6.60;99.90;;;;;;5081696;28;20736;-86
2022/02/10 19:06:27;;;;;;;682.57;637.60;;;6.30;99.90;;;;;;5054035;28;20469;-84
2022/02/10 19:09:11;;;;;;;686.37;641.83;;;6.30;99.90;;;;;;5076512;28;20507;-84
2022/02/10 19:11:46;;;;;;;642.30;606.50;;;6.20;99.90;;;;;;5078297;28;20978;-84
2022/02/10 19:14:19;;;;;;;658.63;623.73;;;6.00;99.90;;;;;;5077378;28;20913;-84
2022/02/10 19:16:48;;;;;;;679.43;641.50;;;5.90;99.90;;;;;;5077646;28;20879;-85
2022/02/10 19:19:19;;;;;;;673.90;636.20;;;5.70;99.90;;;;;;5075039;28;20969;-84
2022/02/10 19:21:52;;;;;;;710.93;664.73;;;5.80;99.90;;;;;;5074605;28;20474;-84
2022/02/10 19:24:22;;;;;;;707.07;659.50;;;5.70;99.90;;;;;;5073349;28;20501;-84
2022/02/10 19:26:50;;;;;;;665.13;631.73;;;5.60;99.90;;;;;;5075985;28;20454;-85
2022/02/10 19:29:19;;;;;;;653.53;621.50;;;4.80;99.90;;;;;;5075625;28;20461;-85
2022/02/10 19:31:47;;;;;;;650.30;620.80;;;4.60;99.90;;;;;;5078504;28;20508;-85
2022/02/10 19:34:16;;;;;;;667.17;633.97;;;4.30;99.90;;;;;;5078876;28;20643;-85
2022/02/10 19:36:45;;;;;;;677.13;633.90;;;4.20;99.90;;;;;;5080652;28;20507;-85
2022/02/10 19:39:16;;;;;;;662.67;621.03;;;4.30;99.90;;;;;;5079089;28;20814;-85
2022/02/10 19:41:48;;;;;;;659.60;616.73;;;4.20;99.90;;;;;;5078917;28;20511;-85
2022/02/10 19:44:16;;;;;;;656.27;614.70;;;4.30;99.90;;;;;;5079923;28;20497;-86
2022/02/10 19:46:44;;;;;;;671.67;622.67;;;4.30;99.90;;;;;;5072819;28;20543;-86
2022/02/10 19:49:16;;;;;;;661.17;614.70;;;4.40;99.90;;;;;;5072664;28;20454;-85
2022/02/10 19:51:45;;;;;;;672.43;622.57;;;4.40;99.90;;;;;;5073621;28;20455;-85
2022/02/10 19:54:15;;;;;;;668.47;618.40;;;4.40;99.90;;;;;;5072092;28;20471;-85
2022/02/10 19:56:42;;;;;;;670.93;621.07;;;4.40;99.90;;;;;;5074205;28;20462;-85
2022/02/10 19:59:18;;;;;;;675.60;624.30;;;4.40;99.90;;;;;;5072768;28;20537;-85
2022/02/10 20:01:47;;;;;;;662.90;613.10;;;4.40;99.90;;;;;;5073999;28;20464;-85
2022/02/10 20:04:14;;;;;;;656.87;609.07;;;4.50;99.90;;;;;;5074481;28;20561;-86
2022/02/10 20:06:41;;;;;;;639.33;598.63;;;4.60;99.90;;;;;;5080175;28;20549;-85
2022/02/10 20:09:08;;;;;;;631.70;591.60;;;4.50;99.90;;;;;;5079279;28;20867;-85
2022/02/10 20:11:36;;;;;;;642.67;597.57;;;4.60;99.90;;;;;;5077782;28;20454;-85
2022/02/10 20:14:03;;;;;;;649.03;603.97;;;4.50;99.90;;;;;;5077408;28;20489;-86
2022/02/10 20:16:30;;;;;;;659.40;611.43;;;4.50;99.90;;;;;;5078110;28;20453;-85
2022/02/10 20:18:57;;;;;;;654.30;608.93;;;4.60;99.90;;;;;;5077413;28;20462;-85
2022/02/10 20:21:24;;;;;;;641.37;598.00;;;4.60;99.90;;;;;;5076777;28;20466;-85
2022/02/10 20:23:51;;;;;;;661.00;611.67;;;4.50;99.90;;;;;;5077656;28;20535;-85
2022/02/10 20:26:18;;;;;;;651.03;605.37;;;4.50;99.90;;;;;;5077764;28;20453;-85
2022/02/10 20:28:46;;;;;;;655.10;607.10;;;4.40;99.90;;;;;;5075611;28;20462;-84
2022/02/10 20:31:15;;;;;;;637.03;596.50;;;4.40;99.90;;;;;;5076985;28;20457;-85
2022/02/10 20:33:43;;;;;;;640.17;598.27;;;4.30;99.90;;;;;;5075017;28;20836;-84
2022/02/10 20:36:11;;;;;;;649.60;603.93;;;4.30;99.90;;;;;;5077270;28;20532;-85
2022/02/10 20:38:45;;;;;;;650.20;603.20;;;4.30;99.90;;;;;;5077168;28;20458;-86
2022/02/10 20:41:15;;;;;;;675.20;623.07;;;4.20;99.90;;;;;;5077994;28;20455;-85
2022/02/10 20:43:43;;;;;;;692.53;636.83;;;4.40;99.90;;;;;;5077167;28;20450;-85
2022/02/10 20:46:15;;;;;;;701.30;645.10;;;4.40;99.90;;;;;;5076600;28;20529;-86
2022/02/10 20:48:42;;;;;;;699.83;642.50;;;4.30;99.90;;;;;;5075971;28;20477;-85
2022/02/10 20:51:12;;;;;;;670.17;621.00;;;4.30;99.90;;;;;;5078004;28;20482;-85
2022/02/10 20:53:45;;;;;;;670.50;619.20;;;4.20;99.90;;;;;;5076787;28;20447;-85
2022/02/10 20:56:18;;;;;;;660.60;614.73;;;4.20;99.90;;;;;;5077877;28;20515;-85
2022/02/10 20:58:45;;;;;;;657.87;615.00;;;4.00;99.90;;;;;;5075831;28;20451;-85
2022/02/10 21:01:14;;;;;;;668.03;619.17;;;3.90;99.90;;;;;;5078694;28;21030;-85
2022/02/10 21:03:43;;;;;;;665.73;615.33;;;4.00;99.90;;;;;;5080798;28;20951;-85
2022/02/10 21:06:18;;;;;;;685.20;631.83;;;3.90;99.90;;;;;;5080150;28;20490;-85
2022/02/10 21:08:52;;;;;;;672.33;624.53;;;4.00;99.90;;;;;;5079518;28;20454;-85
2022/02/10 21:11:23;;;;;;;665.40;621.07;;;3.70;99.90;;;;;;5082568;28;20544;-85
2022/02/10 21:13:50;;;;;;;676.23;630.30;;;3.70;99.90;;;;;;5082462;28;20476;-85
2022/02/10 21:16:18;;;;;;;687.30;638.40;;;3.60;99.90;;;;;;5080453;28;20517;-85
2022/02/10 21:18:46;;;;;;;668.20;619.40;;;3.60;99.90;;;;;;5081122;28;20556;-85
2022/02/10 21:21:16;;;;;;;667.30;616.27;;;3.60;99.90;;;;;;5077153;28;20484;-84
2022/02/10 21:23:50;;;;;;;688.97;636.10;;;3.60;99.90;;;;;;5076495;28;20450;-85
2022/02/10 21:26:26;;;;;;;667.93;615.27;;;3.50;99.90;;;;;;5076257;28;20451;-85
2022/02/10 21:28:58;;;;;;;675.90;620.97;;;3.60;99.90;;;;;;5075097;28;20458;-85
2022/02/10 21:31:26;;;;;;;671.07;617.33;;;3.70;99.90;;;;;;5075960;28;20851;-85
2022/02/10 21:34:04;;;;;;;673.87;620.80;;;3.70;99.90;;;;;;5075662;28;20478;-84
2022/02/10 21:37:00;;;;;;;684.23;631.97;;;3.60;99.90;;;;;;5076004;28;20822;-84
2022/02/10 21:39:37;;;;;;;673.57;620.17;;;3.70;99.90;;;;;;5075363;28;20459;-84
2022/02/10 21:47:46;;;;;;;672.50;618.33;;;3.70;99.90;;;;;;5076236;28;20418;-85
2022/02/10 22:04:52;;;;;;;687.93;628.23;;;3.60;99.90;;;;;;5064699;28;20539;-85
2022/02/10 22:10:06;;;;;;;686.77;628.07;;;3.60;99.90;;;;;;5015722;28;20445;-85
2022/02/10 22:18:32;;;;;;;694.80;634.47;;;3.60;99.90;;;;;;5075842;28;20456;-84
2022/02/10 22:21:06;;;;;;;683.70;625.80;;;3.70;99.90;;;;;;5075590;28;20443;-84
2022/02/10 22:23:36;;;;;;;682.83;625.53;;;3.60;99.90;;;;;;5075303;28;20850;-83
2022/02/10 22:26:07;;;;;;;684.37;626.60;;;3.60;99.90;;;;;;5074945;28;20827;-84
2022/02/10 22:28:45;;;;;;;685.77;628.17;;;3.60;99.90;;;;;;5091282;22;20479;-82
2022/02/10 22:31:25;;;;;;;684.53;627.00;;;3.50;99.90;;;;;;5059374;28;20944;-81
2022/02/10 22:34:02;;;;;;;677.47;620.60;;;3.50;99.90;;;;;;5059223;28;20455;-81
2022/02/10 22:36:31;;;;;;;672.60;616.07;;;3.50;99.90;;;;;;5059778;28;20475;-81
2022/02/10 22:39:01;;;;;;;675.77;618.50;;;3.40;99.90;;;;;;5059142;28;20480;-81
2022/02/10 22:41:28;;;;;;;683.27;625.27;;;3.50;99.90;;;;;;5059321;28;20455;-81
2022/02/10 22:43:55;;;;;;;679.40;621.43;;;3.50;99.90;;;;;;5059487;28;20455;-82
2022/02/10 22:46:23;;;;;;;678.00;619.60;;;3.40;99.90;;;;;;5059082;28;20453;-82
2022/02/10 22:48:50;;;;;;;676.63;618.10;;;3.40;99.90;;;;;;5058781;28;20475;-81
2022/02/10 22:51:19;;;;;;;676.53;618.17;;;3.40;99.90;;;;;;5059138;28;20451;-81
2022/02/10 22:53:47;;;;;;;689.63;630.97;;;3.30;99.90;;;;;;5060260;28;20459;-81
2022/02/10 22:56:16;;;;;;;686.10;627.30;;;3.40;99.90;;;;;;5060082;28;20479;-81
2022/02/10 22:58:43;;;;;;;681.03;622.47;;;3.40;99.90;;;;;;5060454;28;20856;-82
2022/02/10 23:01:12;;;;;;;687.80;629.07;;;3.30;99.90;;;;;;5060795;28;20830;-84
2022/02/10 23:03:41;;;;;;;691.30;632.20;;;3.30;99.90;;;;;;5060975;28;20454;-82
2022/02/10 23:06:09;;;;;;;699.43;640.80;;;3.30;99.90;;;;;;5061948;28;20933;-81
2022/02/10 23:08:37;;;;;;;686.57;626.90;;;3.20;99.90;;;;;;5061176;28;20472;-82
2022/02/10 23:11:05;;;;;;;687.57;627.40;;;3.20;99.90;;;;;;5061754;28;20458;-82
2022/02/10 23:13:35;;;;;;;685.27;625.83;;;3.20;99.90;;;;;;5061720;28;20526;-82
2022/02/10 23:16:04;;;;;;;690.30;629.73;;;3.20;99.90;;;;;;5061959;28;20478;-83
2022/02/10 23:18:32;;;;;;;691.40;631.27;;;3.20;99.90;;;;;;5062497;28;20478;-82
2022/02/10 23:21:02;;;;;;;692.80;632.70;;;3.20;99.90;;;;;;5069370;28;20447;-82
2022/02/10 23:23:32;;;;;;;695.40;634.83;;;3.30;99.90;;;;;;5071557;28;20456;-83
2022/02/10 23:26:00;;;;;;;685.57;625.43;;;3.30;99.90;;;;;;5069313;28;20443;-83
2022/02/10 23:28:31;;;;;;;682.30;622.90;;;3.30;99.90;;;;;;5061496;28;20479;-83
2022/02/10 23:30:59;;;;;;;679.60;621.03;;;3.20;99.90;;;;;;5063063;28;20456;-84
2022/02/10 23:33:29;;;;;;;677.07;618.57;;;3.20;99.90;;;;;;5064398;28;20443;-82
2022/02/10 23:38:47;;;;;;;671.33;614.00;;;3.20;99.90;;;;;;5074860;28;20477;-82
2022/02/10 23:41:46;;;;;;;673.80;615.83;;;3.20;99.90;;;;;;5074573;28;20453;-82
2022/02/10 23:44:16;;;;;;;689.17;631.43;;;3.20;99.90;;;;;;5073019;28;20431;-82
2022/02/10 23:46:45;;;;;;;654.40;597.87;;;3.30;99.90;;;;;;5058352;28;20440;-82
2022/02/10 23:49:15;;;;;;;655.83;598.37;;;3.30;99.90;;;;;;5057735;28;20471;-82
2022/02/10 23:51:47;;;;;;;658.97;601.73;;;3.30;99.90;;;;;;5057759;28;20455;-82
2022/02/10 23:54:14;;;;;;;656.33;599.53;;;3.20;99.90;;;;;;5057930;28;20451;-82
2022/02/10 23:56:46;;;;;;;665.30;608.40;;;3.20;99.90;;;;;;5058325;28;21135;-82
2022/02/10 23:59:21;;;;;;;662.53;606.90;;;3.10;99.90;;;;;;5057974;28;20506;-82
